createdAt,value
2019-05-06T00:00:11.444Z,2.87
2019-05-06T00:02:45.675Z,2.90
2019-05-06T00:05:17.456Z,3.04
2019-05-06T00:07:56.926Z,2.93
2019-05-06T00:10:36.393Z,2.78
2019-05-06T00:13:08.522Z,2.64
2019-05-06T00:15:40.606Z,2.61
2019-05-06T00:18:13.871Z,2.57
2019-05-06T00:20:46.301Z,2.56
2019-05-06T00:23:24.928Z,2.49
2019-05-06T00:26:15.810Z,2.48
2019-05-06T00:28:53.763Z,2.51
2019-05-06T00:31:25.539Z,2.55
2019-05-06T00:33:57.465Z,2.62
2019-05-06T00:36:28.840Z,2.69
2019-05-06T00:39:06.206Z,2.76
2019-05-06T00:41:39.228Z,2.84
2019-05-06T00:44:11.193Z,2.87
2019-05-06T00:46:43.777Z,2.94
2019-05-06T00:49:17.611Z,3.03
2019-05-06T00:51:49.628Z,3.04
2019-05-06T00:54:24.837Z,3.09
2019-05-06T00:56:59.336Z,3.13
2019-05-06T00:59:31.172Z,3.23
2019-05-06T01:02:04.668Z,3.28
2019-05-06T01:04:37.931Z,3.31
2019-05-06T01:07:14.055Z,3.33
2019-05-06T01:09:46.310Z,3.31
2019-05-06T01:12:24.073Z,3.30
2019-05-06T01:14:57.970Z,3.25
2019-05-06T01:17:29.877Z,3.23
2019-05-06T01:20:01.782Z,3.26
2019-05-06T01:22:34.215Z,3.20
2019-05-06T01:25:10.036Z,3.19
2019-05-06T01:27:41.856Z,3.17
2019-05-06T01:30:14.649Z,3.22
2019-05-06T01:32:47.336Z,3.13
2019-05-06T01:35:19.337Z,3.16
2019-05-06T01:38:10.232Z,3.18
2019-05-06T01:41:16.483Z,3.23
2019-05-06T01:43:48.724Z,3.25
2019-05-06T01:46:20.675Z,3.40
2019-05-06T01:48:53.588Z,3.40
2019-05-06T01:51:25.751Z,3.31
2019-05-06T01:53:58.099Z,3.35
2019-05-06T01:56:30.160Z,3.33
2019-05-06T01:59:05.299Z,3.37
2019-05-06T02:01:37.311Z,3.31
2019-05-06T02:04:09.376Z,3.29
2019-05-06T02:06:43.754Z,3.37
2019-05-06T02:09:25.519Z,3.38
2019-05-06T02:11:57.721Z,3.33
2019-05-06T02:14:29.701Z,3.31
2019-05-06T02:17:03.612Z,3.29
2019-05-06T02:19:35.446Z,3.32
2019-05-06T02:22:18.691Z,3.31
2019-05-06T02:25:04.311Z,3.31
2019-05-06T02:27:35.054Z,3.28
2019-05-06T02:30:19.568Z,3.27
2019-05-06T02:32:57.599Z,3.21
2019-05-06T02:35:36.663Z,3.21
2019-05-06T02:38:26.537Z,3.08
2019-05-06T02:40:56.640Z,3.02
2019-05-06T02:43:27.829Z,2.91
2019-05-06T02:46:03.981Z,2.79
2019-05-06T02:48:43.352Z,2.63
2019-05-06T02:51:18.085Z,2.72
2019-05-06T02:53:49.935Z,2.66
2019-05-06T02:56:23.970Z,2.85
2019-05-06T02:58:55.332Z,2.89
2019-05-06T03:01:26.501Z,2.85
2019-05-06T03:03:57.612Z,2.78
2019-05-06T03:06:29.788Z,2.80
2019-05-06T03:09:03.193Z,2.76
2019-05-06T03:11:37.007Z,2.69
2019-05-06T03:14:08.915Z,2.63
2019-05-06T03:16:43.699Z,2.63
2019-05-06T03:19:16.201Z,2.43
2019-05-06T03:22:08.805Z,2.41
2019-05-06T03:24:57.345Z,2.33
2019-05-06T03:27:29.516Z,2.45
2019-05-06T03:30:04.086Z,2.46
2019-05-06T03:32:41.637Z,2.34
2019-05-06T03:35:31.480Z,2.34
2019-05-06T03:37:44.023Z,2.46
2019-05-06T03:40:16.588Z,2.58
2019-05-06T03:42:48.539Z,2.57
2019-05-06T03:45:33.415Z,2.60
2019-05-06T03:48:07.478Z,2.50
2019-05-06T03:50:39.465Z,2.52
2019-05-06T03:53:14.051Z,2.69
2019-05-06T03:55:48.091Z,2.78
2019-05-06T03:58:26.320Z,2.90
2019-05-06T04:00:57.208Z,2.99
2019-05-06T04:03:43.941Z,3.12
2019-05-06T04:06:06.763Z,3.22
2019-05-06T04:08:44.187Z,3.31
2019-05-06T04:11:25.082Z,3.38
2019-05-06T04:14:02.523Z,3.41
2019-05-06T04:16:53.389Z,3.51
2019-05-06T04:19:43.728Z,3.55
2019-05-06T04:22:28.255Z,3.65
2019-05-06T04:25:17.343Z,3.79
2019-05-06T04:27:53.761Z,3.90
2019-05-06T04:30:26.234Z,4.05
2019-05-06T04:32:58.793Z,4.18
2019-05-06T04:35:33.722Z,4.36
2019-05-06T04:38:05.217Z,4.61
2019-05-06T04:40:37.220Z,4.82
2019-05-06T04:43:13.062Z,5.01
2019-05-06T04:45:43.626Z,5.18
2019-05-06T04:48:15.160Z,5.32
2019-05-06T04:50:47.187Z,5.49
2019-05-06T04:53:19.642Z,5.64
2019-05-06T04:55:53.768Z,5.71
2019-05-06T04:58:26.679Z,5.83
2019-05-06T05:00:58.264Z,5.91
2019-05-06T05:03:33.373Z,5.97
2019-05-06T05:06:05.724Z,5.97
2019-05-06T05:08:46.266Z,6.05
2019-05-06T05:11:35.054Z,6.12
2019-05-06T05:14:21.688Z,6.38
2019-05-06T05:17:06.498Z,6.55
2019-05-06T05:19:38.430Z,6.79
2019-05-06T05:22:29.380Z,6.93
2019-05-06T05:25:03.514Z,7.03
2019-05-06T05:27:35.404Z,6.87
2019-05-06T05:30:09.727Z,6.64
2019-05-06T05:32:42.809Z,6.47
2019-05-06T05:35:14.946Z,6.38
2019-05-06T05:37:47.308Z,6.62
2019-05-06T05:40:19.426Z,6.92
2019-05-06T05:43:13.466Z,7.29
2019-05-06T05:45:46.710Z,7.50
2019-05-06T05:48:32.421Z,7.58
2019-05-06T05:51:03.464Z,7.33
2019-05-06T05:53:35.605Z,6.91
2019-05-06T05:56:08.362Z,6.79
2019-05-06T05:58:42.471Z,6.64
2019-05-06T06:01:13.858Z,6.55
2019-05-06T06:03:45.685Z,6.59
2019-05-06T06:06:17.975Z,6.61
2019-05-06T06:08:52.106Z,6.63
2019-05-06T06:11:39.288Z,6.66
2019-05-06T06:14:29.398Z,6.62
2019-05-06T06:17:23.262Z,6.68
2019-05-06T06:20:02.505Z,6.77
2019-05-06T06:22:35.307Z,6.74
2019-05-06T06:25:07.008Z,6.92
2019-05-06T06:27:49.261Z,7.02
2019-05-06T06:30:29.312Z,6.98
2019-05-06T06:33:02.605Z,7.14
2019-05-06T06:35:48.014Z,7.20
2019-05-06T06:38:46.671Z,7.11
2019-05-06T06:41:22.803Z,7.32
2019-05-06T06:43:59.622Z,7.46
2019-05-06T06:46:32.405Z,7.77
2019-05-06T06:49:04.722Z,8.12
2019-05-06T06:51:36.134Z,8.23
2019-05-06T06:54:09.060Z,8.36
2019-05-06T06:57:08.674Z,8.44
2019-05-06T06:59:52.229Z,8.36
2019-05-06T07:02:44.078Z,8.30
2019-05-06T07:05:28.512Z,8.41
2019-05-06T07:08:05.217Z,8.41
2019-05-06T07:10:43.603Z,8.19
2019-05-06T07:13:18.362Z,8.26
2019-05-06T07:18:52.606Z,8.43
2019-05-06T07:21:33.552Z,8.30
2019-05-06T07:24:05.201Z,8.52
2019-05-06T07:26:44.993Z,8.86
2019-05-06T07:29:24.266Z,8.96
2019-05-06T07:31:54.277Z,9.05
2019-05-06T07:34:27.413Z,9.11
2019-05-06T07:36:59.025Z,9.00
2019-05-06T07:39:33.912Z,8.97
2019-05-06T07:42:13.223Z,8.89
2019-05-06T07:45:12.716Z,8.86
2019-05-06T07:47:53.411Z,9.11
2019-05-06T07:50:25.146Z,9.01
2019-05-06T07:53:10.255Z,9.03
2019-05-06T07:55:42.591Z,9.15
2019-05-06T07:58:14.033Z,9.30
2019-05-06T08:00:47.490Z,9.50
2019-05-06T08:03:24.336Z,9.43
2019-05-06T08:05:58.734Z,9.49
2019-05-06T08:08:29.981Z,9.45
2019-05-06T08:11:02.713Z,9.82
2019-05-06T08:13:34.135Z,10.40
2019-05-06T08:16:10.023Z,10.69
2019-05-06T08:18:42.578Z,11.16
2019-05-06T08:21:22.350Z,11.27
2019-05-06T08:23:54.299Z,11.46
2019-05-06T08:26:29.106Z,11.33
2019-05-06T08:29:19.897Z,11.01
2019-05-06T08:32:03.853Z,10.83
2019-05-06T08:34:35.695Z,10.52
2019-05-06T08:37:26.360Z,10.16
2019-05-06T08:39:58.187Z,10.39
2019-05-06T08:42:30.092Z,10.30
2019-05-06T08:45:02.311Z,10.55
2019-05-06T08:47:34.392Z,11.06
2019-05-06T08:50:12.782Z,11.84
2019-05-06T08:53:18.971Z,12.45
2019-05-06T08:55:52.919Z,12.33
2019-05-06T08:58:43.501Z,12.48
2019-05-06T09:01:42.226Z,12.40
2019-05-06T09:04:16.324Z,12.38
2019-05-06T09:06:47.296Z,12.41
2019-05-06T09:09:18.499Z,12.16
2019-05-06T09:11:50.281Z,12.72
2019-05-06T09:14:23.217Z,12.90
2019-05-06T09:16:55.678Z,12.64
2019-05-06T09:19:27.628Z,12.46
2019-05-06T09:21:59.445Z,12.21
2019-05-06T09:24:32.152Z,12.16
2019-05-06T09:27:14.604Z,12.17
2019-05-06T09:30:07.416Z,12.00
2019-05-06T09:32:42.866Z,12.50
2019-05-06T09:35:15.184Z,12.64
2019-05-06T09:37:46.341Z,12.58
2019-05-06T09:40:18.342Z,12.49
2019-05-06T09:42:51.936Z,12.99
2019-05-06T09:45:22.972Z,13.40
2019-05-06T09:48:03.492Z,13.59
2019-05-06T09:50:45.450Z,13.56
2019-05-06T09:53:18.665Z,13.87
2019-05-06T09:56:15.458Z,14.28
2019-05-06T09:58:47.350Z,14.67
2019-05-06T10:01:19.290Z,14.88
2019-05-06T10:03:52.802Z,14.72
2019-05-06T10:06:24.092Z,14.17
2019-05-06T10:08:55.392Z,13.89
2019-05-06T10:11:27.171Z,14.09
2019-05-06T10:13:59.078Z,14.33
2019-05-06T10:16:32.505Z,13.90
2019-05-06T10:19:04.700Z,13.59
2019-05-06T10:21:36.737Z,13.42
2019-05-06T10:24:08.848Z,13.80
2019-05-06T10:26:45.909Z,14.13
2019-05-06T10:29:25.792Z,13.82
2019-05-06T10:32:16.479Z,13.54
2019-05-06T10:34:47.776Z,13.26
2019-05-06T10:37:37.120Z,13.10
2019-05-06T10:40:23.648Z,13.01
2019-05-06T10:43:28.977Z,13.78
2019-05-06T10:46:01.874Z,14.59
2019-05-06T10:48:34.437Z,15.13
2019-05-06T10:51:16.842Z,15.27
2019-05-06T10:53:47.388Z,15.25
2019-05-06T10:56:49.827Z,15.41
2019-05-06T10:59:12.871Z,15.08
2019-05-06T11:01:45.845Z,14.27
2019-05-06T11:04:17.697Z,14.03
2019-05-06T11:06:49.494Z,13.52
2019-05-06T11:09:22.677Z,13.18
2019-05-06T11:11:54.126Z,13.13
2019-05-06T11:14:25.883Z,13.13
2019-05-06T11:16:57.700Z,13.01
2019-05-06T11:19:29.517Z,13.47
2019-05-06T11:22:03.626Z,13.49
2019-05-06T11:24:34.951Z,13.52
2019-05-06T11:27:06.887Z,13.41
2019-05-06T11:29:40.439Z,13.54
2019-05-06T11:32:29.759Z,13.58
2019-05-06T11:35:05.820Z,13.76
2019-05-06T11:38:05.531Z,14.22
2019-05-06T11:40:37.409Z,14.96
2019-05-06T11:43:09.327Z,15.41
2019-05-06T11:45:42.757Z,15.66
2019-05-06T11:48:14.799Z,15.61
2019-05-06T11:50:48.430Z,16.00
2019-05-06T11:53:20.351Z,15.90
2019-05-06T11:55:54.447Z,15.83
2019-05-06T11:58:42.897Z,15.55
2019-05-06T12:01:23.624Z,15.33
2019-05-06T12:03:55.494Z,14.82
2019-05-06T12:06:27.484Z,14.60
2019-05-06T12:08:59.323Z,14.34
2019-05-06T12:11:31.270Z,14.20
2019-05-06T12:14:03.111Z,13.92
2019-05-06T12:16:35.892Z,14.17
2019-05-06T12:19:07.806Z,14.32
2019-05-06T12:21:39.659Z,14.56
2019-05-06T12:24:12.254Z,15.02
2019-05-06T12:26:44.213Z,14.85
2019-05-06T12:29:16.146Z,14.97
2019-05-06T12:31:52.937Z,15.49
2019-05-06T12:34:24.919Z,16.20
2019-05-06T12:36:58.818Z,15.75
2019-05-06T12:39:33.191Z,15.31
2019-05-06T12:42:18.717Z,15.29
2019-05-06T12:45:08.838Z,14.96
2019-05-06T12:48:05.611Z,15.31
2019-05-06T12:50:38.054Z,15.81
2019-05-06T12:53:09.981Z,15.96
2019-05-06T12:55:43.074Z,15.64
2019-05-06T12:58:20.203Z,15.52
2019-05-06T13:00:49.419Z,15.62
2019-05-06T13:03:23.294Z,15.62
2019-05-06T13:05:53.611Z,15.76
2019-05-06T13:08:32.491Z,15.80
2019-05-06T13:10:59.092Z,15.67
2019-05-06T13:13:32.982Z,15.47
2019-05-06T13:16:04.437Z,15.20
2019-05-06T13:18:36.255Z,15.26
2019-05-06T13:21:09.172Z,15.66
2019-05-06T13:23:45.473Z,15.45
2019-05-06T13:26:16.781Z,15.73
2019-05-06T13:28:53.300Z,15.81
2019-05-06T13:31:25.807Z,15.81
2019-05-06T13:34:05.059Z,15.93
2019-05-06T13:36:37.045Z,16.00
2019-05-06T13:39:14.370Z,16.55
2019-05-06T13:41:42.315Z,16.88
2019-05-06T13:44:15.829Z,16.46
2019-05-06T13:47:06.865Z,16.45
2019-05-06T13:49:52.213Z,15.71
2019-05-06T13:52:26.611Z,15.25
2019-05-06T13:54:58.461Z,14.78
2019-05-06T13:57:32.053Z,14.79
2019-05-06T14:00:04.575Z,14.59
2019-05-06T14:02:53.456Z,14.98
2019-05-06T14:05:26.982Z,14.99
2019-05-06T14:08:01.672Z,15.04
2019-05-06T14:10:32.803Z,15.25
2019-05-06T14:13:04.670Z,15.20
2019-05-06T14:15:36.591Z,15.31
2019-05-06T14:18:08.426Z,15.59
2019-05-06T14:20:40.328Z,15.31
2019-05-06T14:23:13.344Z,15.03
2019-05-06T14:26:04.131Z,15.17
2019-05-06T14:28:55.198Z,15.57
2019-05-06T14:31:29.664Z,15.15
2019-05-06T14:34:00.984Z,15.03
2019-05-06T14:36:32.958Z,15.02
2019-05-06T14:39:07.520Z,15.18
2019-05-06T14:41:44.523Z,15.54
2019-05-06T14:44:16.380Z,15.78
2019-05-06T14:47:12.623Z,15.97
2019-05-06T14:49:45.509Z,16.02
2019-05-06T14:52:17.721Z,15.48
2019-05-06T14:54:54.036Z,15.18
2019-05-06T14:57:26.680Z,15.19
2019-05-06T14:59:57.937Z,15.23
2019-05-06T15:02:29.315Z,14.86
2019-05-06T15:05:03.040Z,14.65
2019-05-06T15:07:35.616Z,14.71
2019-05-06T15:10:22.967Z,14.94
2019-05-06T15:12:50.141Z,14.88
2019-05-06T15:15:22.946Z,14.90
2019-05-06T15:17:55.320Z,14.83
2019-05-06T15:20:27.349Z,15.02
2019-05-06T15:23:04.400Z,15.10
2019-05-06T15:25:33.514Z,15.14
2019-05-06T15:28:05.140Z,15.19
2019-05-06T15:30:44.179Z,15.18
2019-05-06T15:33:18.353Z,14.77
2019-05-06T15:36:18.255Z,14.59
2019-05-06T15:38:52.606Z,14.62
2019-05-06T15:41:23.953Z,14.63
2019-05-06T15:43:56.132Z,14.45
2019-05-06T15:46:27.663Z,14.26
2019-05-06T15:48:59.914Z,13.98
2019-05-06T15:51:35.114Z,13.87
2019-05-06T15:54:17.831Z,13.58
2019-05-06T15:56:53.288Z,13.40
2019-05-06T15:59:24.254Z,13.53
2019-05-06T16:01:56.619Z,13.66
2019-05-06T16:04:28.713Z,13.89
2019-05-06T16:07:02.835Z,14.05
2019-05-06T16:09:39.744Z,14.07
2019-05-06T16:12:12.749Z,13.97
2019-05-06T16:14:46.211Z,13.56
2019-05-06T16:17:18.365Z,13.39
2019-05-06T16:19:50.002Z,13.15
2019-05-06T16:22:28.199Z,13.45
2019-05-06T16:25:17.483Z,13.36
2019-05-06T16:27:54.514Z,13.28
2019-05-06T16:30:24.901Z,13.16
2019-05-06T16:32:56.777Z,13.11
2019-05-06T16:35:28.210Z,12.99
2019-05-06T16:38:02.696Z,12.87
2019-05-06T16:40:42.578Z,12.78
2019-05-06T16:44:04.634Z,12.70
2019-05-06T16:46:27.766Z,12.70
2019-05-06T16:48:52.591Z,12.65
2019-05-06T16:51:32.615Z,12.60
2019-05-06T16:54:02.127Z,12.54
2019-05-06T16:56:52.917Z,12.59
2019-05-06T16:59:27.669Z,12.65
2019-05-06T17:02:01.218Z,12.74
2019-05-06T17:04:42.465Z,12.71
2019-05-06T17:07:15.064Z,12.88
2019-05-06T17:09:47.869Z,13.04
2019-05-06T17:12:19.291Z,13.23
2019-05-06T17:14:52.436Z,13.47
2019-05-06T17:17:24.449Z,13.42
2019-05-06T17:19:56.641Z,13.45
2019-05-06T17:22:32.988Z,13.53
2019-05-06T17:25:04.605Z,13.71
2019-05-06T17:27:38.537Z,13.62
2019-05-06T17:30:46.025Z,13.65
2019-05-06T17:33:35.264Z,13.52
2019-05-06T17:36:09.284Z,13.24
2019-05-06T17:38:44.697Z,13.26
2019-05-06T17:41:16.209Z,13.29
2019-05-06T17:43:47.536Z,13.42
2019-05-06T17:46:22.259Z,13.25
2019-05-06T17:49:03.479Z,13.10
2019-05-06T17:51:59.800Z,12.87
2019-05-06T17:54:32.481Z,12.67
2019-05-06T17:57:04.865Z,12.38
2019-05-06T17:59:37.845Z,12.29
2019-05-06T18:02:15.165Z,11.98
2019-05-06T18:05:06.137Z,11.64
2019-05-06T18:07:38.472Z,11.35
2019-05-06T18:10:12.018Z,11.04
2019-05-06T18:12:47.968Z,10.75
2019-05-06T18:15:18.641Z,10.53
2019-05-06T18:17:52.345Z,10.37
2019-05-06T18:20:23.313Z,10.32
2019-05-06T18:22:55.514Z,10.43
2019-05-06T18:25:27.655Z,10.44
2019-05-06T18:27:59.776Z,10.32
2019-05-06T18:30:34.379Z,10.28
2019-05-06T18:33:04.234Z,10.26
2019-05-06T18:35:36.552Z,10.23
2019-05-06T18:38:09.191Z,10.16
2019-05-06T18:40:42.369Z,10.16
2019-05-06T18:43:13.943Z,10.17
2019-05-06T18:45:49.284Z,10.18
2019-05-06T18:48:21.939Z,10.04
2019-05-06T18:50:53.752Z,9.98
2019-05-06T18:53:24.969Z,10.02
2019-05-06T18:55:56.918Z,9.99
2019-05-06T18:58:28.371Z,10.21
2019-05-06T19:01:00.445Z,10.29
2019-05-06T19:03:40.124Z,10.17
2019-05-06T19:06:12.274Z,10.07
2019-05-06T19:08:49.696Z,9.97
2019-05-06T19:11:22.245Z,10.04
2019-05-06T19:13:54.581Z,10.09
2019-05-06T19:16:25.904Z,10.25
2019-05-06T19:18:57.245Z,10.22
2019-05-06T19:21:29.232Z,10.14
2019-05-06T19:24:02.808Z,9.98
2019-05-06T19:26:35.412Z,9.72
2019-05-06T19:29:08.251Z,9.57
2019-05-06T19:31:39.906Z,9.49
2019-05-06T19:34:12.911Z,9.57
2019-05-06T19:36:44.643Z,9.65
2019-05-06T19:39:16.588Z,9.74
2019-05-06T19:41:48.603Z,9.73
2019-05-06T19:44:22.115Z,9.76
2019-05-06T19:46:53.671Z,9.76
2019-05-06T19:49:25.900Z,9.86
2019-05-06T19:51:58.909Z,9.90
2019-05-06T19:54:32.920Z,9.74
2019-05-06T19:57:03.927Z,9.65
2019-05-06T19:59:35.172Z,9.71
2019-05-06T20:02:06.495Z,9.64
2019-05-06T20:04:43.993Z,9.67
2019-05-06T20:07:26.903Z,9.65
2019-05-06T20:10:14.747Z,9.70
2019-05-06T20:13:01.476Z,9.67
2019-05-06T20:15:42.254Z,9.60
2019-05-06T20:18:14.359Z,9.50
2019-05-06T20:20:45.967Z,9.32
2019-05-06T20:23:17.263Z,9.28
2019-05-06T20:25:51.850Z,9.21
2019-05-06T20:28:22.875Z,9.24
2019-05-06T20:30:54.295Z,9.18
2019-05-06T20:33:25.575Z,9.14
2019-05-06T20:35:57.483Z,8.94
2019-05-06T20:38:30.167Z,8.98
2019-05-06T20:41:02.996Z,8.78
2019-05-06T20:43:35.923Z,8.70
2019-05-06T20:46:12.226Z,8.66
2019-05-06T20:48:42.774Z,8.69
2019-05-06T20:51:14.974Z,8.84
2019-05-06T20:53:46.346Z,8.82
2019-05-06T20:56:21.822Z,8.89
2019-05-06T20:58:52.922Z,8.86
2019-05-06T21:01:24.344Z,8.89
2019-05-06T21:03:56.542Z,8.97
2019-05-06T21:06:28.476Z,8.88
2019-05-06T21:08:59.799Z,8.89
2019-05-06T21:11:42.119Z,8.87
2019-05-06T21:14:18.229Z,8.93
2019-05-06T21:16:51.203Z,8.95
2019-05-06T21:19:23.308Z,8.88
2019-05-06T21:21:55.766Z,8.88
2019-05-06T21:24:29.485Z,9.05
2019-05-06T21:27:02.719Z,8.91
2019-05-06T21:29:34.608Z,8.83
2019-05-06T21:32:06.670Z,8.96
2019-05-06T21:34:38.934Z,8.89
2019-05-06T21:37:12.280Z,8.90
2019-05-06T21:39:44.223Z,8.84
2019-05-06T21:42:17.789Z,8.85
2019-05-06T21:44:48.950Z,8.78
2019-05-06T21:47:20.092Z,8.71
2019-05-06T21:49:52.849Z,8.74
2019-05-06T21:52:36.627Z,8.66
2019-05-06T21:54:58.344Z,8.63
2019-05-06T21:57:29.610Z,8.54
2019-05-06T22:00:02.653Z,8.45
2019-05-06T22:02:35.762Z,8.53
2019-05-06T22:05:08.442Z,8.49
2019-05-06T22:07:43.139Z,8.40
2019-05-06T22:10:14.148Z,8.42
2019-05-06T22:12:45.950Z,8.42
2019-05-06T22:15:17.858Z,8.47
2019-05-06T22:17:49.077Z,8.26
2019-05-06T22:20:23.621Z,8.14
2019-05-06T22:22:53.138Z,8.04
2019-05-06T22:25:24.862Z,8.00
2019-05-06T22:27:56.046Z,7.81
2019-05-06T22:30:27.190Z,7.77
2019-05-06T22:32:59.047Z,7.62
2019-05-06T22:35:32.527Z,7.48
2019-05-06T22:38:04.538Z,7.43
2019-05-06T22:40:35.690Z,7.37
2019-05-06T22:43:06.820Z,7.31
2019-05-06T22:45:38.618Z,7.31
2019-05-06T22:48:11.999Z,7.31
2019-05-06T22:50:43.543Z,7.30
2019-05-06T22:53:15.422Z,7.27
2019-05-06T22:55:46.669Z,7.23
2019-05-06T22:58:18.417Z,7.25
2019-05-06T23:00:53.533Z,7.26
2019-05-06T23:03:25.754Z,7.26
2019-05-06T23:05:57.647Z,7.27
2019-05-06T23:08:32.319Z,7.28
2019-05-06T23:11:03.377Z,7.31
2019-05-06T23:13:35.277Z,7.30
2019-05-06T23:16:06.461Z,7.29
2019-05-06T23:18:37.618Z,7.28
2019-05-06T23:21:08.752Z,7.26
2019-05-06T23:23:40.499Z,7.25
2019-05-06T23:26:22.762Z,7.25
2019-05-06T23:28:55.676Z,7.20
2019-05-06T23:31:26.978Z,7.11
2019-05-06T23:33:58.151Z,7.02
2019-05-06T23:37:08.224Z,6.90
2019-05-06T23:40:42.723Z,6.76
2019-05-06T23:43:49.382Z,6.60
2019-05-06T23:47:16.157Z,6.47
2019-05-06T23:50:42.838Z,6.41
2019-05-06T23:54:08.473Z,6.31
2019-05-06T23:56:44.637Z,6.23
2019-05-06T23:59:18.458Z,6.33
